Station History

Weather Underground - logo

Station Historical Data
Daily Summary for February 8, 2018 Units:  Metric    English   Both
« Previous Day
Next Day »
Daily Weekly Monthly Yearly Custom
  High: Low: Average:
Temperature: 24.1 °C 6.4 °C 14.3 °C
Dew Point: 12 °C 5 °C 8.5 °C
Humidity: 91 % 39 % 71 %
Wind Speed: 13 km/h 0 km/h 0.8 km/h
Wind Gust: 13 km/h - -
Wind:- - WSW
Pressure: 1024.6 hPa 1018.5 hPa -
Precipitation: 0 mm    
Historical Graphs
 
 
Tabular Data for February 8, 2018
Time Temperature Dew Point Pressure Wind Wind Speed Wind Gust Humidity Rainfall Rate (Hourly)
00:00 10.4 °C 7.7 °C 1023.6 hPa SE 1.9 km/h   83 % 0 mm
00:05 10.4 °C 7.6 °C 1023.6 hPa Calm     83 % 0 mm
00:10 10.2 °C 7.4 °C 1023.9 hPa Calm     83 % 0 mm
00:15 9.9 °C 7.3 °C 1023.9 hPa Calm     84 % 0 mm
00:20 9.7 °C 7.3 °C 1023.9 hPa Calm     85 % 0 mm
00:25 9.6 °C 7.4 °C 1023.9 hPa Calm     86 % 0 mm
00:30 9.5 °C 7.3 °C 1023.6 hPa Calm     86 % 0 mm
00:35 9.6 °C 7.4 °C 1023.6 hPa Calm     86 % 0 mm
00:40 9.6 °C 7.2 °C 1023.6 hPa Calm     85 % 0 mm
00:45 9.6 °C 7.2 °C 1023.6 hPa Calm     85 % 0 mm
00:50 9.6 °C 7.2 °C 1023.6 hPa Calm     85 % 0 mm
00:55 9.7 °C 7.3 °C 1023.6 hPa Calm     85 % 0 mm
01:00 9.8 °C 7.2 °C 1023.6 hPa Calm     84 % 0 mm
01:05 9.8 °C 7.2 °C 1023.6 hPa Calm     84 % 0 mm
01:10 9.7 °C 7.1 °C 1023.6 hPa Calm     84 % 0 mm
01:15 9.5 °C 6.9 °C 1023.9 hPa Calm     84 % 0 mm
01:21 9.4 °C 7 °C 1023.9 hPa Calm     85 % 0 mm
01:26 9.3 °C 6.9 °C 1023.9 hPa Calm     85 % 0 mm
01:31 9.3 °C 7.1 °C 1023.9 hPa Calm     86 % 0 mm
01:36 9.2 °C 6.9 °C 1023.9 hPa Calm     86 % 0 mm
01:41 9.1 °C 7.1 °C 1023.9 hPa Calm     87 % 0 mm
01:46 9.1 °C 7 °C 1023.6 hPa Calm     87 % 0 mm
01:51 8.9 °C 6.8 °C 1023.6 hPa Calm     87 % 0 mm
01:56 8.8 °C 6.8 °C 1023.6 hPa Calm     87 % 0 mm
02:01 8.8 °C 6.9 °C 1023.6 hPa Calm     88 % 0 mm
02:06 8.7 °C 6.8 °C 1023.6 hPa SE 13 km/h 13 km/h 88 % 0 mm
02:11 8.6 °C 6.9 °C 1023.6 hPa Calm     89 % 0 mm
02:16 8.7 °C 7 °C 1023.6 hPa Calm     89 % 0 mm
02:21 8.8 °C 6.9 °C 1023.6 hPa Calm     88 % 0 mm
02:26 8.8 °C 6.9 °C 1023.2 hPa Calm     88 % 0 mm
02:31 8.8 °C 6.9 °C 1023.2 hPa Calm     88 % 0 mm
02:36 8.7 °C 6.8 °C 1023.6 hPa Calm     88 % 0 mm
02:41 8.7 °C 6.8 °C 1023.2 hPa Calm     88 % 0 mm
02:46 8.7 °C 6.8 °C 1023.2 hPa Calm     88 % 0 mm
02:51 8.6 °C 6.7 °C 1023.2 hPa Calm     88 % 0 mm
02:56 8.6 °C 6.7 °C 1023.2 hPa Calm     88 % 0 mm
03:01 8.5 °C 6.6 °C 1023.2 hPa Calm     88 % 0 mm
03:06 8.4 °C 6.6 °C 1023.2 hPa Calm     88 % 0 mm
03:11 8.4 °C 6.6 °C 1023.2 hPa Calm     88 % 0 mm
03:16 8.6 °C 6.7 °C 1023.2 hPa Calm     88 % 0 mm
03:21 8.6 °C 6.7 °C 1022.9 hPa Calm     88 % 0 mm
03:26 8.5 °C 6.6 °C 1022.9 hPa Calm     88 % 0 mm
03:31 8.3 °C 6.4 °C 1022.9 hPa Calm     88 % 0 mm
03:36 8.1 °C 5.8 °C 1023.2 hPa Calm     86 % 0 mm
03:41 7.8 °C 5.7 °C 1023.2 hPa Calm     87 % 0 mm
03:46 7.6 °C 5.7 °C 1023.2 hPa Calm     88 % 0 mm
03:51 7.6 °C 6.1 °C 1023.2 hPa Calm     90 % 0 mm
03:56 7.4 °C 5.6 °C 1023.2 hPa Calm     88 % 0 mm
04:01 7.2 °C 5.4 °C 1023.2 hPa Calm     88 % 0 mm
04:06 6.9 °C 5.3 °C 1023.2 hPa Calm     89 % 0 mm
04:11 6.8 °C 5.1 °C 1023.2 hPa Calm     89 % 0 mm
04:16 6.7 °C 5.2 °C 1023.2 hPa Calm     90 % 0 mm
04:21 6.6 °C 5.1 °C 1023.2 hPa Calm     90 % 0 mm
04:26 6.6 °C 5.1 °C 1023.2 hPa SE 1.9 km/h 1.9 km/h 90 % 0 mm
04:31 6.6 °C 5.1 °C 1023.6 hPa Calm     90 % 0 mm
04:36 6.6 °C 5.1 °C 1023.6 hPa Calm     90 % 0 mm
04:41 6.7 °C 5.3 °C 1023.6 hPa Calm     91 % 0 mm
04:46 6.7 °C 5.2 °C 1023.6 hPa Calm     90 % 0 mm
04:51 6.5 °C 5 °C 1023.6 hPa Calm     90 % 0 mm
04:56 6.4 °C 5.1 °C 1023.6 hPa Calm     91 % 0 mm
05:01 6.5 °C 5.1 °C 1023.6 hPa Calm     91 % 0 mm
05:06 6.6 °C 5.2 °C 1023.6 hPa Calm     91 % 0 mm
05:11 6.8 °C 5.4 °C 1023.6 hPa Calm     91 % 0 mm
05:16 6.9 °C 5.6 °C 1023.6 hPa Calm   0.2 km/h 91 % 0 mm
05:21 6.9 °C 5.4 °C 1023.6 hPa Calm     90 % 0 mm
05:26 6.8 °C 5.3 °C 1023.6 hPa Calm     90 % 0 mm
05:31 6.9 °C 5.4 °C 1023.6 hPa Calm     90 % 0 mm
05:36 7 °C 5.3 °C 1023.6 hPa ESE 1.9 km/h   89 % 0 mm
05:41 7 °C 5.3 °C 1023.6 hPa Calm     89 % 0 mm
05:46 7.1 °C 5.4 °C 1023.9 hPa Calm     89 % 0 mm
05:51 7.1 °C 5.4 °C 1023.9 hPa Calm     89 % 0 mm
05:56 7.1 °C 5.4 °C 1023.9 hPa Calm     89 % 0 mm
06:01 6.9 °C 5.3 °C 1023.9 hPa Calm     89 % 0 mm
06:06 6.9 °C 5.2 °C 1023.9 hPa Calm     89 % 0 mm
06:11 6.9 °C 5.4 °C 1023.9 hPa Calm     90 % 0 mm
06:16 6.9 °C 5.4 °C 1023.9 hPa ESE 1.9 km/h 1.9 km/h 90 % 0 mm
06:21 6.9 °C 5.4 °C 1023.9 hPa Calm     90 % 0 mm
06:26 6.9 °C 5.4 °C 1023.9 hPa ESE 1.9 km/h 1.9 km/h 90 % 0 mm
06:31 7 °C 5.4 °C 1023.9 hPa Calm     90 % 0 mm
06:36 7.1 °C 5.7 °C 1024.3 hPa Calm     91 % 0 mm
06:41 7.1 °C 5.7 °C 1023.9 hPa Calm     91 % 0 mm
06:46 7.1 °C 5.6 °C 1024.3 hPa Calm     90 % 0 mm
06:51 7.1 °C 5.7 °C 1024.3 hPa Calm     91 % 0 mm
06:57 7.1 °C 5.7 °C 1024.3 hPa Calm     91 % 0 mm
07:01 7.2 °C 5.8 °C 1024.3 hPa Calm     91 % 0 mm
07:07 7.3 °C 5.9 °C 1024.3 hPa Calm     91 % 0 mm
07:12 7.4 °C 6 °C 1024.3 hPa Calm     91 % 0 mm
07:17 7.5 °C 5.9 °C 1024.3 hPa Calm     90 % 0 mm
07:22 7.6 °C 6.1 °C 1024.3 hPa Calm     90 % 0 mm
07:27 7.7 °C 6.2 °C 1024.3 hPa Calm     90 % 0 mm
07:32 7.8 °C 6.2 °C 1024.3 hPa Calm     90 % 0 mm
07:37 7.9 °C 6.3 °C 1024.3 hPa Calm     90 % 0 mm
07:42 8.1 °C 6.6 °C 1024.6 hPa Calm     90 % 0 mm
07:47 8.3 °C 6.6 °C 1024.6 hPa Calm     89 % 0 mm
07:52 8.7 °C 7 °C 1024.6 hPa Calm     89 % 0 mm
07:57 9.3 °C 7.4 °C 1024.3 hPa Calm     88 % 0 mm
08:02 9.8 °C 7.6 °C 1024.3 hPa Calm     86 % 0 mm
08:07 10.3 °C 8.1 °C 1024.6 hPa Calm     86 % 0 mm
08:12 10.9 °C 8.3 °C 1024.6 hPa Calm     84 % 0 mm
08:17 11.4 °C 8.3 °C 1024.6 hPa Calm     81 % 0 mm
08:22 11.9 °C 8.6 °C 1024.6 hPa Calm     80 % 0 mm
08:27 12.4 °C 8.8 °C 1024.6 hPa Calm     79 % 0 mm
08:32 12.9 °C 9 °C 1024.6 hPa Calm     77 % 0 mm
08:37 13.4 °C 9.1 °C 1024.6 hPa Calm     75 % 0 mm
08:42 13.7 °C 9.1 °C 1024.6 hPa Calm     74 % 0 mm
08:47 13.9 °C 9.3 °C 1024.6 hPa SE 1.9 km/h   74 % 0 mm
08:52 14.3 °C 9.3 °C 1024.3 hPa Calm     72 % 0 mm
08:57 14.6 °C 9.2 °C 1024.3 hPa Calm     70 % 0 mm
09:02 15 °C 9.3 °C 1024.3 hPa ESE 1.9 km/h 1.9 km/h 69 % 0 mm
09:07 15.3 °C 9.4 °C 1024.6 hPa East 1.9 km/h 1.9 km/h 68 % 0 mm
09:12 15.7 °C 9.8 °C 1024.6 hPa SE 1.9 km/h   68 % 0 mm
09:17 16 °C 9.4 °C 1024.3 hPa ESE 5.6 km/h 5.6 km/h 65 % 0 mm
09:22 16.2 °C 9.4 °C 1024.3 hPa ESE 1.9 km/h   64 % 0 mm
09:27 16.5 °C 9.4 °C 1024.3 hPa ESE 5.6 km/h 5.6 km/h 63 % 0 mm
09:32 16.7 °C 9.3 °C 1024.3 hPa South 3.7 km/h 3.7 km/h 62 % 0 mm
09:37 16.9 °C 9.4 °C 1024.3 hPa SE 5.6 km/h 5.6 km/h 61 % 0 mm
09:42 17.1 °C 9.5 °C 1024.3 hPa South 5.6 km/h 5.6 km/h 61 % 0 mm
09:47 17.4 °C 9.3 °C 1024.3 hPa SSE 5.6 km/h 5.6 km/h 59 % 0 mm
09:52 17.4 °C 9.6 °C 1023.9 hPa SSE 5.6 km/h 5.6 km/h 60 % 0 mm
09:57 17.7 °C 10.1 °C 1023.9 hPa SE 1.6 km/h 1.6 km/h 61 % 0 mm
10:02 18.1 °C 9.9 °C 1023.9 hPa East 3.7 km/h 3.7 km/h 59 % 0 mm
10:07 18.2 °C 9.8 °C 1023.9 hPa SSE 5.6 km/h 5.6 km/h 58 % 0 mm
10:12 18.2 °C 9.8 °C 1023.9 hPa NNW 5.6 km/h 5.6 km/h 58 % 0 mm
10:17 18 °C 9.9 °C 1023.9 hPa NNW 1.9 km/h 1.9 km/h 59 % 0 mm
10:22 18.1 °C 10.4 °C 1023.9 hPa SSE 3.7 km/h   61 % 0 mm
10:27 18.2 °C 10.1 °C 1023.9 hPa SE 1.9 km/h 1.9 km/h 59 % 0 mm
10:32 18.4 °C 10 °C 1023.9 hPa NW 1.9 km/h 1.9 km/h 58 % 0 mm
10:37 18.5 °C 10.3 °C 1023.9 hPa South 5.6 km/h 5.6 km/h 59 % 0 mm
10:42 18.6 °C 9.9 °C 1023.9 hPa NNW 3.7 km/h 3.7 km/h 57 % 0 mm
10:47 18.3 °C 9.7 °C 1023.9 hPa NE 3.7 km/h 3.7 km/h 57 % 0 mm
10:52 18.5 °C 10.1 °C 1023.6 hPa NW 3.7 km/h 3.7 km/h 58 % 0 mm
10:57 18.6 °C 10.4 °C 1023.6 hPa SSE 1.9 km/h 1.9 km/h 59 % 0 mm
11:02 19 °C 10.3 °C 1023.6 hPa SSE 3.7 km/h 3.7 km/h 57 % 0 mm
11:07 19.5 °C 10.8 °C 1023.6 hPa East 1.9 km/h   57 % 0 mm
11:12 19.8 °C 10.8 °C 1023.6 hPa SE 1.9 km/h   56 % 0 mm
11:17 19.6 °C 10.3 °C 1023.2 hPa NNW 1.9 km/h 1.9 km/h 55 % 0 mm
11:22 19.4 °C 10.1 °C 1023.2 hPa NW 5.6 km/h 5.6 km/h 55 % 0 mm
11:27 19.5 °C 10.8 °C 1023.2 hPa NE 1.6 km/h   57 % 0 mm
11:32 19.6 °C 10.3 °C 1023.2 hPa NW 1.9 km/h 1.9 km/h 55 % 0 mm
11:37 19.5 °C 10.2 °C 1023.2 hPa WNW 3.7 km/h 3.7 km/h 55 % 0 mm
11:42 19.7 °C 10.7 °C 1023.2 hPa NW 3.7 km/h 3.7 km/h 56 % 0 mm
11:47 19.9 °C 10.9 °C 1022.9 hPa WNW 4.8 km/h 4.8 km/h 56 % 0 mm
11:52 20.1 °C 11.3 °C 1022.9 hPa West 1.9 km/h 1.9 km/h 57 % 0 mm
11:57 20.4 °C 11.6 °C 1022.9 hPa Calm     57 % 0 mm
12:02 20.7 °C 11 °C 1022.6 hPa NW 1.9 km/h 1.9 km/h 54 % 0 mm
12:07 20.6 °C 11 °C 1022.6 hPa NW 3.7 km/h   54 % 0 mm
12:12 20.9 °C 11.5 °C 1022.6 hPa Calm     55 % 0 mm
12:17 21.4 °C 11.7 °C 1022.2 hPa NW 1.9 km/h   54 % 0 mm
12:22 21.5 °C 11.5 °C 1022.2 hPa NW 5.6 km/h 5.6 km/h 53 % 0 mm
12:27 21.3 °C 11 °C 1022.2 hPa WNW 3.7 km/h 3.7 km/h 52 % 0 mm
12:32 21.2 °C 11.6 °C 1021.9 hPa Calm   0.5 km/h 54 % 0 mm
12:37 21.4 °C 11.4 °C 1021.9 hPa Calm     53 % 0 mm
12:42 21.7 °C 11.4 °C 1021.6 hPa WSW 3.7 km/h 3.7 km/h 52 % 0 mm
12:47 21.8 °C 11.2 °C 1021.6 hPa NW 3.7 km/h 3.7 km/h 51 % 0 mm
12:52 21.9 °C 11.3 °C 1021.6 hPa NW 1.9 km/h 1.9 km/h 51 % 0 mm
12:57 22.1 °C 11.2 °C 1021.2 hPa WNW 1.9 km/h   50 % 0 mm
13:02 22.4 °C 11.4 °C 1021.2 hPa Calm   1.4 km/h 50 % 0 mm
13:07 22.4 °C 11.5 °C 1021.2 hPa NW 1.9 km/h 1.9 km/h 50 % 0 mm
13:13 22.6 °C 11.3 °C 1020.9 hPa NNW 1.9 km/h 1.9 km/h 49 % 0 mm
13:18 22.8 °C 11.6 °C 1020.9 hPa Calm     49 % 0 mm
13:23 23 °C 12 °C 1020.5 hPa Calm     50 % 0 mm
13:28 22.9 °C 11.3 °C 1020.5 hPa NW 3.7 km/h 3.7 km/h 48 % 0 mm
13:33 23 °C 11.4 °C 1020.5 hPa NW 3.7 km/h 3.7 km/h 48 % 0 mm
13:38 23.1 °C 11.1 °C 1020.2 hPa Calm     47 % 0 mm
13:43 23.1 °C 10.8 °C 1020.2 hPa NW 1.9 km/h 1.9 km/h 46 % 0 mm
13:48 23.2 °C 10.6 °C 1020.2 hPa WNW 1.9 km/h 1.9 km/h 45 % 0 mm
13:53 23.3 °C 10.7 °C 1019.9 hPa NNW 3.7 km/h 3.7 km/h 45 % 0 mm
13:58 23.3 °C 10.3 °C 1019.9 hPa Calm     44 % 0 mm
14:03 23.4 °C 10.8 °C 1019.9 hPa WSW 1.9 km/h 1.9 km/h 45 % 0 mm
14:08 23.6 °C 11 °C 1019.9 hPa NW 3.7 km/h 3.7 km/h 45 % 0 mm
14:13 23.7 °C 11.1 °C 1019.5 hPa NW 5.6 km/h 5.6 km/h 45 % 0 mm
14:18 23.6 °C 10.3 °C 1019.5 hPa NW 1.9 km/h 1.9 km/h 43 % 0 mm
14:23 23.6 °C 9.6 °C 1019.5 hPa NW 1.9 km/h 1.9 km/h 41 % 0 mm
14:28 23.7 °C 9.3 °C 1019.5 hPa WNW 1.6 km/h 1.6 km/h 40 % 0 mm
14:33 23.6 °C 9.6 °C 1019.2 hPa Calm     41 % 0 mm
14:38 23.9 °C 9.8 °C 1019.2 hPa Calm     41 % 0 mm
14:43 24.1 °C 10 °C 1019.2 hPa NW 1.6 km/h 1.6 km/h 41 % 0 mm
14:48 24.1 °C 10.3 °C 1018.8 hPa Calm     42 % 0 mm
14:53 24.1 °C 10.7 °C 1018.8 hPa Calm     43 % 0 mm
14:58 24.1 °C 10.4 °C 1018.8 hPa Calm     42 % 0 mm
15:03 24.1 °C 10 °C 1018.8 hPa Calm     41 % 0 mm
15:08 24 °C 9.9 °C 1018.8 hPa Calm     41 % 0 mm
15:13 23.9 °C 9.5 °C 1018.5 hPa NW 1.9 km/h   40 % 0 mm
15:18 23.9 °C 9.8 °C 1018.8 hPa Calm     41 % 0 mm
15:23 23.9 °C 10.2 °C 1018.8 hPa NW 1.9 km/h 1.9 km/h 42 % 0 mm
15:28 23.8 °C 9.7 °C 1018.5 hPa NW 1.9 km/h 1.9 km/h 41 % 0 mm
15:33 23.6 °C 9.6 °C 1018.5 hPa WSW 1.9 km/h   41 % 0 mm
15:38 23.5 °C 9.1 °C 1018.5 hPa NW 1.9 km/h   40 % 0 mm
15:43 23.5 °C 9.1 °C 1018.5 hPa West 1.9 km/h 1.9 km/h 40 % 0 mm
15:48 23.4 °C 8.7 °C 1018.5 hPa WNW 1.9 km/h 1.9 km/h 39 % 0 mm
15:53 23.4 °C 8.7 °C 1018.5 hPa NNW 1.9 km/h 1.9 km/h 39 % 0 mm
15:58 23.4 °C 9.1 °C 1018.5 hPa Calm   0.2 km/h 40 % 0 mm
16:03 23.4 °C 9.7 °C 1018.5 hPa Calm     42 % 0 mm
16:08 23.3 °C 10 °C 1018.5 hPa NW 1.9 km/h 1.9 km/h 43 % 0 mm
16:13 23.2 °C 9.6 °C 1018.5 hPa WNW 1.9 km/h 1.9 km/h 42 % 0 mm
16:18 23.2 °C 9.6 °C 1018.5 hPa WNW 1.9 km/h   42 % 0 mm
16:20 23.2 °C 9.6 °C 1018.5 hPa Calm     42 % 0 mm
16:25 23.1 °C 9.5 °C 1018.5 hPa WNW 1.9 km/h 1.9 km/h 42 % 0 mm
16:30 23.1 °C 9.8 °C 1018.5 hPa WNW 1.9 km/h 1.9 km/h 43 % 0 mm
16:35 22.9 °C 9.7 °C 1018.8 hPa WNW 1.9 km/h   43 % 0 mm
16:40 22.8 °C 10.3 °C 1018.5 hPa Calm     45 % 0 mm
16:45 22.6 °C 10.4 °C 1018.5 hPa Calm     46 % 0 mm
16:50 22.4 °C 10.6 °C 1018.8 hPa Calm     47 % 0 mm
16:55 22.2 °C 11 °C 1018.8 hPa Calm     49 % 0 mm
17:00 22 °C 11.1 °C 1018.8 hPa Calm     50 % 0 mm
17:05 21.7 °C 10.8 °C 1018.8 hPa Calm     50 % 0 mm
17:10 21.4 °C 10.9 °C 1018.8 hPa Calm     51 % 0 mm
17:15 21.2 °C 10.9 °C 1018.8 hPa Calm     52 % 0 mm
17:20 20.9 °C 10.7 °C 1018.8 hPa Calm     52 % 0 mm
17:25 20.7 °C 10.7 °C 1018.8 hPa Calm     53 % 0 mm
17:30 20.4 °C 10.5 °C 1018.8 hPa Calm     53 % 0 mm
17:35 20.1 °C 10.4 °C 1018.8 hPa Calm     54 % 0 mm
17:40 19.6 °C 10.3 °C 1018.8 hPa Calm     55 % 0 mm
17:45 19.3 °C 10.3 °C 1018.8 hPa Calm     56 % 0 mm
17:50 19.1 °C 10.4 °C 1018.8 hPa Calm     57 % 0 mm
17:55 18.7 °C 10.2 °C 1018.8 hPa Calm     58 % 0 mm
18:00 18.3 °C 10.6 °C 1018.8 hPa Calm     61 % 0 mm
18:05 17.9 °C 10.6 °C 1018.8 hPa Calm     62 % 0 mm
18:10 17.6 °C 10.9 °C 1018.8 hPa Calm     65 % 0 mm
18:15 17.2 °C 10.8 °C 1018.8 hPa Calm     66 % 0 mm
18:20 16.9 °C 10.8 °C 1018.8 hPa Calm     67 % 0 mm
18:25 16.6 °C 10.4 °C 1019.2 hPa Calm     67 % 0 mm
18:30 16.3 °C 10.3 °C 1019.2 hPa Calm     68 % 0 mm
18:35 16.1 °C 10.4 °C 1019.2 hPa Calm     69 % 0 mm
18:40 15.9 °C 10.4 °C 1019.2 hPa Calm     70 % 0 mm
18:45 15.8 °C 10.3 °C 1019.2 hPa Calm     70 % 0 mm
18:50 15.5 °C 10.1 °C 1019.2 hPa Calm     70 % 0 mm
18:55 15.2 °C 10 °C 1019.2 hPa Calm     71 % 0 mm
19:00 15 °C 10 °C 1019.2 hPa Calm     72 % 0 mm
19:05 14.7 °C 10.1 °C 1019.2 hPa Calm     74 % 0 mm
19:10 14.6 °C 10 °C 1019.2 hPa Calm     74 % 0 mm
19:15 14.3 °C 9.9 °C 1019.2 hPa Calm     75 % 0 mm
19:20 14.3 °C 10.1 °C 1019.5 hPa Calm     76 % 0 mm
19:25 14.2 °C 9.8 °C 1019.2 hPa Calm     75 % 0 mm
19:30 14.1 °C 9.7 °C 1019.5 hPa Calm     75 % 0 mm
19:35 13.9 °C 9.6 °C 1019.5 hPa Calm     75 % 0 mm
19:40 13.9 °C 9.3 °C 1019.2 hPa Calm     74 % 0 mm
19:46 14.2 °C 9.2 °C 1019.5 hPa Calm     72 % 0 mm
19:51 14.3 °C 9.2 °C 1019.5 hPa Calm     71 % 0 mm
19:56 14.3 °C 9.1 °C 1019.5 hPa Calm     71 % 0 mm
20:01 14.4 °C 9 °C 1019.5 hPa Calm     70 % 0 mm
20:06 14.4 °C 9 °C 1019.5 hPa Calm     70 % 0 mm
20:11 14.3 °C 8.7 °C 1019.5 hPa Calm     69 % 0 mm
20:16 14.2 °C 8.6 °C 1019.5 hPa Calm     69 % 0 mm
20:21 14.1 °C 8.7 °C 1019.5 hPa Calm     70 % 0 mm
20:23 14 °C 8.6 °C 1019.5 hPa Calm     70 % 0 mm
20:28 13.7 °C 8.6 °C 1019.5 hPa Calm     71 % 0 mm
20:33 13.5 °C 8.6 °C 1019.2 hPa Calm     72 % 0 mm
20:38 13.3 °C 8.7 °C 1019.2 hPa Calm     74 % 0 mm
20:43 13.1 °C 8.6 °C 1019.2 hPa Calm     74 % 0 mm
20:48 13 °C 8.9 °C 1019.2 hPa Calm     76 % 0 mm
20:53 12.8 °C 8.9 °C 1019.2 hPa Calm     77 % 0 mm
20:58 12.7 °C 8.8 °C 1019.2 hPa Calm     77 % 0 mm
21:03 12.7 °C 8.7 °C 1019.5 hPa Calm     77 % 0 mm
21:08 12.6 °C 8.6 °C 1019.2 hPa Calm     77 % 0 mm
21:13 12.4 °C 8.4 °C 1019.2 hPa Calm     77 % 0 mm
21:18 12.2 °C 8.5 °C 1019.2 hPa Calm     78 % 0 mm
21:23 12 °C 8.3 °C 1019.5 hPa Calm     78 % 0 mm
21:28 11.8 °C 8.4 °C 1019.5 hPa Calm     80 % 0 mm
21:33 11.6 °C 8.2 °C 1019.2 hPa Calm     80 % 0 mm
21:38 11.3 °C 8.2 °C 1019.2 hPa Calm     81 % 0 mm
21:43 11.2 °C 8.2 °C 1019.2 hPa Calm     82 % 0 mm
21:48 11 °C 8.1 °C 1019.2 hPa Calm     82 % 0 mm
21:53 10.9 °C 8.1 °C 1019.5 hPa Calm     83 % 0 mm
21:58 10.7 °C 7.9 °C 1019.5 hPa Calm     83 % 0 mm
22:03 10.6 °C 8 °C 1019.2 hPa Calm     84 % 0 mm
22:08 10.6 °C 7.9 °C 1019.5 hPa Calm     84 % 0 mm
22:13 10.7 °C 8.1 °C 1019.5 hPa Calm     84 % 0 mm
22:18 10.8 °C 8 °C 1019.5 hPa Calm     83 % 0 mm
22:23 10.7 °C 7.8 °C 1019.5 hPa Calm     82 % 0 mm
22:28 10.8 °C 8 °C 1019.5 hPa Calm     83 % 0 mm
22:33 10.6 °C 7.6 °C 1019.5 hPa Calm     82 % 0 mm
22:39 10.5 °C 7.9 °C 1019.5 hPa Calm     84 % 0 mm
22:44 10.6 °C 8 °C 1019.5 hPa Calm     84 % 0 mm
22:49 10.6 °C 7.9 °C 1019.9 hPa Calm     84 % 0 mm
22:54 10.5 °C 7.9 °C 1019.9 hPa Calm     84 % 0 mm
22:59 10.4 °C 7.8 °C 1019.9 hPa Calm     84 % 0 mm
23:04 10.2 °C 7.6 °C 1019.9 hPa Calm     84 % 0 mm
23:09 10 °C 7.4 °C 1019.9 hPa Calm     84 % 0 mm
23:14 9.8 °C 7.4 °C 1019.9 hPa Calm     85 % 0 mm
23:19 9.7 °C 7.3 °C 1019.9 hPa Calm     85 % 0 mm
23:24 9.6 °C 7.4 °C 1019.9 hPa Calm     86 % 0 mm
23:29 9.6 °C 7.3 °C 1019.9 hPa Calm     86 % 0 mm
23:34 9.6 °C 7.5 °C 1019.9 hPa Calm     87 % 0 mm
23:39 9.4 °C 7.4 °C 1019.9 hPa Calm     87 % 0 mm
23:44 9.4 °C 7.3 °C 1019.9 hPa Calm     87 % 0 mm
23:49 9.3 °C 7.3 °C 1019.5 hPa Calm     87 % 0 mm
23:54 9.3 °C 7.2 °C 1019.5 hPa Calm     87 % 0 mm
23:59 9.4 °C 7.3 °C 1019.5 hPa Calm     87 % 0 mm
Park Place, Exeter, Tulare County, California, USA
Compliments of Weather Underground - 2.75 mb